Time;durP1;ratioP1;P1;durP2;ratioP2;P2;SDS_P1;SDS_P2;PMS_P1;PMS_P2;Temp;Humidity;BMP_temperature;BMP_pressure;BME280_temperature;BME280_humidity;BME280_pressure;Samples;Min_cycle;Max_cycle;Signal;HPM_P1;HPM_P2
2023/04/11 00:00:59;;;;;;;70.60;63.00;;;;;;;3.34;94.68;98016.66;106903;1285;22564;-85
2023/04/11 00:03:27;;;;;;;73.60;65.80;;;;;;;3.24;93.91;98011.44;106766;1285;24068;-86
2023/04/11 00:05:56;;;;;;;70.10;63.20;;;;;;;3.21;94.13;98012.63;106482;1285;22538;-86
2023/04/11 00:08:24;;;;;;;69.60;62.80;;;;;;;3.21;94.26;98008.67;106570;1285;24244;-89
2023/04/11 00:10:52;;;;;;;69.50;62.30;;;;;;;3.26;94.52;98006.08;106561;1285;22640;-87
2023/04/11 00:13:20;;;;;;;64.80;58.30;;;;;;;3.33;94.49;98005.21;106643;1285;22538;-87
2023/04/11 00:15:52;;;;;;;69.10;61.80;;;;;;;3.24;95.39;98002.66;106587;1285;24204;-86
2023/04/11 00:18:21;;;;;;;74.00;66.20;;;;;;;3.09;95.10;98006.25;106633;1285;22543;-87
2023/04/11 00:20:49;;;;;;;77.00;69.40;;;;;;;3.05;95.20;97998.15;106731;1285;25338;-87
2023/04/11 00:23:17;;;;;;;73.70;66.30;;;;;;;3.03;94.99;97993.61;106550;1285;22572;-86
2023/04/11 00:25:46;;;;;;;72.80;65.70;;;;;;;3.03;94.92;97990.05;106605;1285;22604;-86
2023/04/11 00:28:14;;;;;;;72.70;65.60;;;;;;;3.02;94.79;97987.15;106630;1285;22632;-87
2023/04/11 00:30:42;;;;;;;67.10;60.30;;;;;;;3.04;95.03;97985.22;106516;1285;24084;-86
2023/04/11 00:33:10;;;;;;;65.90;59.40;;;;;;;3.06;94.58;97975.86;106631;1285;25549;-88
2023/04/11 00:35:39;;;;;;;70.00;62.90;;;;;;;3.06;94.45;97975.82;106626;1285;25426;-87
2023/04/11 00:38:07;;;;;;;86.60;76.90;;;;;;;3.04;94.72;97968.92;106569;1285;25338;-86
2023/04/11 00:40:35;;;;;;;79.20;71.30;;;;;;;2.95;94.40;97962.27;106633;1285;22528;-86
2023/04/11 00:43:03;;;;;;;66.30;59.60;;;;;;;2.85;95.16;97954.38;106492;1285;201537;-87
2023/04/11 00:45:31;;;;;;;64.80;58.50;;;;;;;2.80;95.78;97955.21;106579;1285;22521;-88
2023/04/11 00:48:00;;;;;;;65.50;58.70;;;;;;;2.73;95.48;97945.65;106785;1285;22590;-88
2023/04/11 00:50:28;;;;;;;63.60;57.30;;;;;;;2.68;96.10;97949.27;106942;1285;22604;-87
2023/04/11 00:52:56;;;;;;;64.70;58.10;;;;;;;2.58;96.82;97947.16;107580;1285;22495;-85
2023/04/11 00:55:25;;;;;;;67.40;60.60;;;;;;;2.51;96.84;97951.38;109291;1285;22558;-84
2023/04/11 00:57:54;;;;;;;62.50;56.40;;;;;;;2.45;96.28;97950.76;109845;1285;22331;-85
2023/04/11 01:00:23;;;;;;;60.70;54.50;;;;;;;2.47;95.96;97950.69;109892;1285;22501;-84
2023/04/11 01:02:51;;;;;;;62.90;56.70;;;;;;;2.53;96.12;97945.02;109388;1285;22644;-84
2023/04/11 01:05:21;;;;;;;67.20;60.30;;;;;;;2.62;96.27;97938.97;109341;1285;22625;-84
2023/04/11 01:07:51;;;;;;;75.30;67.30;;;;;;;2.71;96.74;97934.98;107105;1285;22661;-84
2023/04/11 01:10:20;;;;;;;73.40;65.50;;;;;;;2.79;96.37;97929.33;106603;1285;24927;-86
2023/04/11 01:12:48;;;;;;;71.10;64.00;;;;;;;2.85;96.31;97930.48;106571;1285;22604;-86
2023/04/11 01:15:17;;;;;;;67.90;61.60;;;;;;;2.87;95.77;97931.07;106714;1285;22741;-85
2023/04/11 01:17:46;;;;;;;67.00;60.40;;;;;;;2.87;95.54;97928.69;106550;1285;24346;-85
2023/04/11 01:20:15;;;;;;;69.50;62.40;;;;;;;2.89;95.77;97923.54;106542;1285;26634;-84
2023/04/11 01:22:44;;;;;;;69.50;62.40;;;;;;;2.78;95.60;97924.05;106593;1285;22593;-84
2023/04/11 01:25:14;;;;;;;74.40;67.10;;;;;;;2.66;95.61;97921.56;106555;1274;22549;-85
2023/04/11 01:27:43;;;;;;;61.70;55.80;;;;;;;2.54;96.07;97917.36;106485;1285;22643;-84
2023/04/11 01:30:11;;;;;;;62.00;55.90;;;;;;;2.45;96.29;97913.89;106602;1285;23054;-84
2023/04/11 01:32:39;;;;;;;62.80;56.30;;;;;;;2.39;96.25;97909.67;106641;1285;22788;-84
2023/04/11 01:35:11;;;;;;;64.40;58.10;;;;;;;2.35;96.64;97911.73;106495;1285;22592;-85
2023/04/11 01:37:39;;;;;;;65.30;58.50;;;;;;;2.31;97.19;97907.52;106579;1279;24235;-85
2023/04/11 01:40:08;;;;;;;66.70;59.70;;;;;;;2.23;96.93;97904.23;106607;1285;22661;-86
2023/04/11 01:42:37;;;;;;;65.00;58.40;;;;;;;2.11;97.22;97900.61;106645;1285;25280;-83
2023/04/11 01:45:07;;;;;;;64.40;58.10;;;;;;;2.02;97.26;97895.42;106725;1285;24463;-84
2023/04/11 01:47:35;;;;;;;78.70;70.80;;;;;;;2.02;97.28;97898.84;106696;1285;22652;-84
2023/04/11 01:50:04;;;;;;;72.70;65.20;;;;;;;2.08;97.13;97897.42;106811;1285;22537;-84
2023/04/11 01:52:32;;;;;;;75.10;66.60;;;;;;;2.16;97.15;97898.80;106953;1283;22626;-84
2023/04/11 01:55:00;;;;;;;71.80;64.20;;;;;;;2.28;97.49;97900.52;107352;1285;24251;-82
2023/04/11 01:57:29;;;;;;;70.40;63.40;;;;;;;2.38;97.48;97903.52;107391;1285;22923;-83
2023/04/11 01:59:58;;;;;;;72.10;64.90;;;;;;;2.43;97.65;97908.92;107212;1285;22569;-83
2023/04/11 02:02:26;;;;;;;65.00;58.10;;;;;;;2.48;97.45;97907.60;106587;1285;22548;-83
2023/04/11 02:04:54;;;;;;;67.80;61.00;;;;;;;2.51;96.91;97903.27;106695;1285;22527;-82
2023/04/11 02:07:22;;;;;;;70.20;62.60;;;;;;;2.48;96.21;97903.08;106595;1285;22801;-82
2023/04/11 02:09:50;;;;;;;80.30;67.40;;;;;;;2.47;96.13;97899.17;106687;1279;25349;-81
2023/04/11 02:12:18;;;;;;;74.60;66.40;;;;;;;2.46;96.26;97894.44;106651;1285;22599;-82
2023/04/11 02:14:46;;;;;;;77.80;69.90;;;;;;;2.45;96.39;97889.12;106466;1285;22801;-81
2023/04/11 02:17:17;;;;;;;82.40;72.50;;;;;;;2.43;96.57;97880.36;106525;1285;22586;-81
2023/04/11 02:19:45;;;;;;;64.40;57.70;;;;;;;2.43;96.39;97870.24;106593;1285;26749;-82
2023/04/11 02:22:15;;;;;;;63.30;56.80;;;;;;;2.30;96.11;97869.45;106539;1285;25312;-82
2023/04/11 02:24:43;;;;;;;66.80;59.80;;;;;;;2.16;96.72;97866.54;106540;1285;22590;-82
2023/04/11 02:27:11;;;;;;;73.60;65.90;;;;;;;2.03;97.35;97861.90;106487;1285;22647;-83
2023/04/11 02:29:39;;;;;;;93.30;71.40;;;;;;;1.88;97.24;97859.98;106487;1285;25291;-82
2023/04/11 02:32:08;;;;;;;81.80;70.10;;;;;;;1.80;97.62;97853.39;106607;1285;22534;-83
2023/04/11 02:34:36;;;;;;;87.30;67.10;;;;;;;1.79;97.39;97855.27;106393;1272;22530;-81
2023/04/11 02:37:05;;;;;;;175.00;67.60;;;;;;;1.83;97.49;97853.73;106480;1285;24257;-81
2023/04/11 02:39:34;;;;;;;87.10;69.20;;;;;;;1.91;97.74;97850.23;106401;1286;23162;-81
2023/04/11 02:42:02;;;;;;;82.10;65.20;;;;;;;2.00;97.98;97848.02;106365;1286;23331;-81
2023/04/11 02:44:30;;;;;;;120.90;70.80;;;;;;;2.04;97.12;97849.09;106454;1286;25493;-81
2023/04/11 02:46:59;;;;;;;153.40;73.40;;;;;;;1.99;96.69;97845.47;106385;1286;25635;-81
2023/04/11 02:49:27;;;;;;;189.20;77.80;;;;;;;1.95;96.67;97844.35;106393;1286;22591;-82
2023/04/11 02:51:56;;;;;;;158.80;85.90;;;;;;;1.87;96.60;97846.67;106406;1286;22752;-82
2023/04/11 02:54:24;;;;;;;102.20;76.00;;;;;;;1.81;96.72;97843.04;106393;1283;22646;-82
2023/04/11 02:56:54;;;;;;;100.30;77.10;;;;;;;1.79;96.56;97841.05;106390;1286;25387;-82
2023/04/11 02:59:23;;;;;;;96.30;71.60;;;;;;;1.80;96.63;97839.84;106349;1286;25507;-82
2023/04/11 03:01:59;;;;;;;84.40;71.30;;;;;;;1.85;96.88;97833.79;106413;1286;22581;-82
2023/04/11 03:04:27;;;;;;;87.70;58.70;;;;;;;1.88;96.93;97826.98;106280;1286;22551;-82
2023/04/11 03:07:03;;;;;;;112.30;65.20;;;;;;;1.72;97.38;97828.44;106362;1286;22640;-83
2023/04/11 03:09:31;;;;;;;121.30;67.00;;;;;;;1.54;97.03;97826.42;106228;1273;22683;-85
2023/04/11 03:12:00;;;;;;;103.30;66.10;;;;;;;1.48;97.18;97823.67;106449;1286;22615;-83
2023/04/11 03:14:28;;;;;;;90.50;80.60;;;;;;;1.48;97.24;97818.94;106343;1286;22604;-83
2023/04/11 03:16:56;;;;;;;69.30;62.50;;;;;;;1.49;97.33;97818.59;106409;1286;24082;-83
2023/04/11 03:19:25;;;;;;;71.60;64.00;;;;;;;1.47;96.79;97817.61;106397;1286;24380;-84
2023/04/11 03:21:54;;;;;;;90.90;67.00;;;;;;;1.47;97.00;97820.05;106470;1286;22638;-83
2023/04/11 03:24:22;;;;;;;115.60;71.10;;;;;;;1.42;96.85;97818.38;106402;1286;22873;-85
2023/04/11 03:26:51;;;;;;;142.90;72.90;;;;;;;1.36;97.17;97817.59;106459;1276;22706;-85
2023/04/11 03:29:19;;;;;;;74.00;65.40;;;;;;;1.31;97.39;97825.90;106483;1286;22566;-85
2023/04/11 03:32:07;;;;;;;70.50;63.00;;;;;;;1.35;97.47;97819.60;106506;1286;22694;-86
2023/04/11 03:34:38;;;;;;;70.20;63.20;;;;;;;1.43;97.62;97815.31;106482;1286;22549;-84
2023/04/11 03:37:07;;;;;;;81.10;72.30;;;;;;;1.50;97.59;97812.66;106464;1286;24388;-84
2023/04/11 03:39:36;;;;;;;79.80;71.50;;;;;;;1.55;97.59;97813.85;106414;1286;22569;-84
2023/04/11 03:42:04;;;;;;;114.20;82.50;;;;;;;1.55;97.17;97813.38;106371;1286;22544;-85
2023/04/11 03:44:32;;;;;;;133.10;85.70;;;;;;;1.45;96.82;97819.22;106364;1286;22563;-85
2023/04/11 03:47:01;;;;;;;154.40;66.20;;;;;;;1.35;96.82;97811.15;106376;1286;22818;-85
2023/04/11 03:49:35;;;;;;;174.00;64.30;;;;;;;1.29;97.01;97809.88;106410;1286;24343;-85
2023/04/11 03:52:06;;;;;;;147.80;71.90;;;;;;;1.24;97.22;97803.60;106223;1286;25358;-84
2023/04/11 03:54:39;;;;;;;152.80;58.70;;;;;;;1.24;97.12;97805.50;106405;1286;25465;-84
2023/04/11 03:57:09;;;;;;;;;;;;;;;1.22;97.18;97800.80;106385;1286;24262;-82
2023/04/11 03:59:37;;;;;;;83.40;74.50;;;;;;;1.25;97.43;97794.41;106368;1286;23303;-83
2023/04/11 04:02:09;;;;;;;80.80;72.80;;;;;;;1.24;97.70;97790.06;106335;1286;22561;-84
2023/04/11 04:04:45;;;;;;;74.20;60.10;;;;;;;1.22;97.45;97788.42;106344;1286;25374;-84
2023/04/11 04:07:23;;;;;;;71.30;63.90;;;;;;;1.15;97.57;97787.73;106395;1286;22580;-84
2023/04/11 04:09:54;;;;;;;72.10;64.30;;;;;;;1.09;98.26;97783.55;106455;1286;22657;-84
2023/04/11 04:12:22;;;;;;;74.90;65.60;;;;;;;1.08;98.37;97779.00;106395;1286;22599;-84
2023/04/11 04:15:04;;;;;;;74.70;67.20;;;;;;;1.05;97.97;97769.15;106348;1286;25262;-83
2023/04/11 04:17:32;;;;;;;72.40;65.20;;;;;;;1.15;98.80;97774.40;106410;1286;22599;-84
2023/04/11 04:20:05;;;;;;;66.00;59.50;;;;;;;1.32;99.56;97768.84;106404;1286;22665;-83
2023/04/11 04:22:36;;;;;;;99.20;90.40;;;;;;;1.51;99.96;97772.15;106384;1286;22547;-83
2023/04/11 04:25:05;;;;;;;62.30;56.30;;;;;;;1.76;99.96;97770.81;106427;1286;24215;-83
2023/04/11 04:27:35;;;;;;;59.20;53.20;;;;;;;2.01;99.90;97768.64;106390;1286;22531;-84
2023/04/11 04:30:03;;;;;;;63.20;57.10;;;;;;;2.17;99.45;97767.09;106417;1286;24246;-83
2023/04/11 04:32:57;;;;;;;73.20;65.60;;;;;;;2.26;98.87;97760.39;106402;1286;23913;-84
2023/04/11 04:35:26;;;;;;;121.30;99.00;;;;;;;2.27;98.28;97759.40;106513;1285;25382;-83
2023/04/11 04:37:56;;;;;;;98.10;87.60;;;;;;;2.26;98.35;97754.77;106506;1286;25554;-84
2023/04/11 04:40:43;;;;;;;82.00;73.50;;;;;;;2.26;98.39;97751.46;106475;1285;24384;-84
2023/04/11 04:43:16;;;;;;;79.00;70.30;;;;;;;2.29;98.18;97747.73;106596;1285;22530;-84
2023/04/11 04:45:50;;;;;;;77.30;69.50;;;;;;;2.35;98.25;97736.23;106594;1285;22682;-83
2023/04/11 04:48:24;;;;;;;78.00;70.50;;;;;;;2.41;98.24;97731.47;106507;1285;24243;-86
2023/04/11 04:50:52;;;;;;;107.60;89.00;;;;;;;2.47;98.33;97731.80;106489;1285;22664;-86
2023/04/11 04:53:20;;;;;;;84.80;76.20;;;;;;;2.48;98.68;97729.46;106486;1285;26694;-87
2023/04/11 04:55:53;;;;;;;84.70;76.10;;;;;;;2.45;98.52;97732.63;106594;1285;22594;-84
2023/04/11 04:58:21;;;;;;;85.10;72.70;;;;;;;2.49;98.75;97729.85;106470;1285;24148;-86
2023/04/11 05:00:54;;;;;;;77.40;69.00;;;;;;;2.60;98.79;97725.96;106432;1285;22641;-85
2023/04/11 05:03:27;;;;;;;75.00;66.70;;;;;;;2.72;98.77;97725.17;106515;1285;22609;-86
2023/04/11 05:05:58;;;;;;;84.50;75.70;;;;;;;2.81;99.09;97717.34;106587;1285;25288;-84
2023/04/11 05:08:26;;;;;;;84.90;76.10;;;;;;;2.90;99.18;97712.78;106461;1285;25287;-84
2023/04/11 05:10:57;;;;;;;86.20;76.90;;;;;;;2.99;99.26;97711.36;106420;1285;22558;-84
2023/04/11 05:13:25;;;;;;;90.60;78.60;;;;;;;3.11;99.23;97710.02;106403;1285;22552;-85
2023/04/11 05:15:54;;;;;;;81.10;72.30;;;;;;;3.24;99.18;97704.58;106425;1285;26654;-85
2023/04/11 05:18:25;;;;;;;77.00;69.40;;;;;;;3.36;99.07;97706.52;106389;1285;22747;-86
2023/04/11 05:20:53;;;;;;;67.40;60.10;;;;;;;3.50;99.60;97705.74;106499;1285;26743;-85
2023/04/11 05:23:23;;;;;;;65.00;55.20;;;;;;;3.66;99.71;97698.59;106448;1285;24252;-85
2023/04/11 05:25:52;;;;;;;55.90;50.00;;;;;;;3.81;99.97;97698.09;106407;1285;22640;-85
2023/04/11 05:28:20;;;;;;;36.40;33.00;;;;;;;3.99;100.00;97692.20;106508;1285;22842;-86
2023/04/11 05:30:49;;;;;;;32.80;29.70;;;;;;;4.25;100.00;97688.95;106330;1285;22531;-87
2023/04/11 05:33:17;;;;;;;25.90;23.40;;;;;;;4.51;100.00;97683.84;106517;1285;22666;-86
2023/04/11 05:35:46;;;;;;;29.60;27.00;;;;;;;4.78;100.00;97679.24;106454;1285;22647;-85
2023/04/11 05:38:14;;;;;;;31.20;28.50;;;;;;;5.04;100.00;97677.91;106440;1285;22609;-86
2023/04/11 05:40:42;;;;;;;22.10;20.10;;;;;;;5.28;100.00;97677.23;106421;1279;24245;-87
2023/04/11 05:43:13;;;;;;;21.80;20.00;;;;;;;5.48;100.00;97673.03;106439;1285;25542;-87
2023/04/11 05:45:46;;;;;;;25.90;23.50;;;;;;;5.66;100.00;97668.39;106361;1285;25366;-85
2023/04/11 05:48:18;;;;;;;;;;;;;;;5.86;100.00;97669.77;107196;1285;22635;-83
2023/04/11 05:50:49;;;;;;;13.50;12.00;;;;;;;6.05;100.00;97665.86;106513;1285;22629;-85
2023/04/11 05:53:18;;;;;;;16.30;14.80;;;;;;;6.23;100.00;97658.81;106448;1285;22664;-83
2023/04/11 05:55:46;;;;;;;16.70;15.00;;;;;;;6.41;100.00;97659.78;106571;1285;22580;-85
2023/04/11 05:58:15;;;;;;;21.80;19.80;;;;;;;6.59;100.00;97653.14;106441;1285;24378;-84
2023/04/11 06:00:44;;;;;;;18.20;16.50;;;;;;;6.75;100.00;97647.02;106515;1285;22611;-82
2023/04/11 06:03:12;;;;;;;20.00;18.40;;;;;;;6.89;100.00;97640.96;106529;1285;23356;-83
2023/04/11 06:05:41;;;;;;;22.50;20.50;;;;;;;7.03;100.00;97639.39;106421;1285;22540;-84
2023/04/11 06:08:10;;;;;;;17.70;15.80;;;;;;;7.18;100.00;97631.27;106377;1285;22669;-85
2023/04/11 06:10:38;;;;;;;17.90;16.10;;;;;;;7.32;100.00;97626.20;106455;1285;25519;-84
2023/04/11 06:13:06;;;;;;;20.10;18.10;;;;;;;7.47;100.00;97621.91;106447;1285;24206;-84
2023/04/11 06:15:34;;;;;;;20.70;18.70;;;;;;;7.60;100.00;97617.01;106510;1285;24290;-84
2023/04/11 06:18:02;;;;;;;19.70;17.90;;;;;;;7.70;100.00;97612.76;106498;1285;23375;-82
2023/04/11 06:20:30;;;;;;;18.80;17.10;;;;;;;7.83;100.00;97610.29;106435;1285;22750;-81
2023/04/11 06:23:00;;;;;;;21.20;19.20;;;;;;;8.00;100.00;97604.44;106442;1285;22652;-81
2023/04/11 06:25:28;;;;;;;20.80;18.90;;;;;;;8.18;100.00;97602.70;106456;1285;24260;-82
2023/04/11 06:27:56;;;;;;;21.50;19.20;;;;;;;8.33;100.00;97602.30;106364;1285;22663;-82
2023/04/11 06:30:25;;;;;;;23.40;18.90;;;;;;;8.44;100.00;97599.59;106361;1285;25333;-81
2023/04/11 06:32:53;;;;;;;14.70;13.30;;;;;;;8.55;99.91;97602.34;106412;1285;23386;-83
2023/04/11 06:35:23;;;;;;;13.60;12.20;;;;;;;8.65;99.93;97602.11;106506;1285;24265;-83
2023/04/11 06:37:51;;;;;;;14.90;12.30;;;;;;;8.81;99.69;97602.89;106390;1285;25485;-81
2023/04/11 06:40:20;;;;;;;14.20;12.80;;;;;;;8.97;99.59;97601.39;106317;1285;22801;-81
2023/04/11 06:42:48;;;;;;;14.20;12.80;;;;;;;9.15;99.62;97600.30;106362;1285;22616;-81
2023/04/11 06:45:16;;;;;;;13.20;11.80;;;;;;;9.25;98.10;97600.88;106477;1285;22601;-81
2023/04/11 06:47:44;;;;;;;13.90;10.80;;;;;;;9.30;96.99;97603.91;106427;1285;25465;-82
2023/04/11 06:50:12;;;;;;;11.70;9.50;;;;;;;9.35;96.60;97602.95;106335;1281;22699;-82
2023/04/11 06:52:40;;;;;;;12.40;11.20;;;;;;;9.44;97.07;97601.92;106406;1285;25246;-81
2023/04/11 06:55:09;;;;;;;13.00;11.60;;;;;;;9.56;96.70;97602.98;106386;1285;24356;-81
2023/04/11 06:57:37;;;;;;;13.50;12.10;;;;;;;9.66;95.63;97607.58;106348;1271;22525;-81
2023/04/11 07:00:07;;;;;;;13.90;12.20;;;;;;;9.66;95.41;97607.03;106393;1285;23600;-80
2023/04/11 07:02:35;;;;;;;15.50;13.20;;;;;;;9.64;95.06;97607.90;106393;1285;22791;-81
2023/04/11 07:05:05;;;;;;;16.60;13.40;;;;;;;9.64;95.44;97607.04;106403;1285;22538;-81
2023/04/11 07:07:32;;;;;;;13.70;12.30;;;;;;;9.65;95.28;97605.82;106503;1285;24200;-83
2023/04/11 07:10:01;;;;;;;11.90;10.80;;;;;;;9.67;94.68;97603.69;106551;1285;24186;-83
2023/04/11 07:12:29;;;;;;;11.80;10.60;;;;;;;9.66;94.23;97606.02;106608;1285;23049;-83
2023/04/11 07:14:57;;;;;;;12.50;11.30;;;;;;;9.56;93.13;97602.02;106475;1285;23777;-82
2023/04/11 07:17:25;;;;;;;13.60;12.20;;;;;;;9.48;92.84;97593.89;106522;1285;22802;-84
2023/04/11 07:19:53;;;;;;;14.20;12.70;;;;;;;9.40;93.07;97591.14;106490;1262;26661;-84
2023/04/11 07:22:22;;;;;;;11.00;9.90;;;;;;;9.40;92.84;97585.91;106622;1285;25288;-82
2023/04/11 07:24:56;;;;;;;10.20;9.20;;;;;;;9.35;91.53;97580.54;106457;1285;24238;-82
2023/04/11 07:27:25;;;;;;;11.40;10.30;;;;;;;9.30;91.96;97579.77;106488;1285;24105;-81
2023/04/11 07:29:53;;;;;;;11.50;9.70;;;;;;;9.31;91.90;97581.51;106577;1285;24238;-87
2023/04/11 07:32:21;;;;;;;10.10;9.10;;;;;;;9.31;91.79;97579.30;106579;1285;23299;-82
2023/04/11 07:34:49;;;;;;;12.30;9.90;;;;;;;9.35;91.28;97576.93;106489;1285;22578;-83
2023/04/11 07:37:17;;;;;;;9.70;8.70;;;;;;;9.43;92.04;97578.98;106571;1285;25412;-82
2023/04/11 07:39:45;;;;;;;10.60;9.00;;;;;;;9.57;91.10;97579.29;106476;1285;25288;-82
2023/04/11 07:42:13;;;;;;;14.90;9.50;;;;;;;9.71;91.99;97583.77;106421;1285;22569;-84
2023/04/11 07:44:41;;;;;;;9.60;8.60;;;;;;;9.85;91.50;97581.02;106472;1285;24299;-82
2023/04/11 07:47:09;;;;;;;10.00;9.00;;;;;;;9.99;91.47;97575.88;106443;1285;22550;-83
2023/04/11 07:49:37;;;;;;;10.00;9.10;;;;;;;10.15;90.98;97572.42;106646;1285;25471;-84
2023/04/11 07:52:05;;;;;;;13.80;10.90;;;;;;;10.31;91.41;97563.90;106429;1285;22657;-83
2023/04/11 07:54:33;;;;;;;14.80;10.40;;;;;;;10.52;90.84;97560.40;106550;1285;22539;-85
2023/04/11 07:57:01;;;;;;;12.70;11.40;;;;;;;10.69;90.60;97554.76;106521;1285;22613;-84
2023/04/11 07:59:29;;;;;;;23.10;9.90;;;;;;;10.87;90.29;97553.98;106602;1285;22568;-84
2023/04/11 08:02:03;;;;;;;16.80;10.90;;;;;;;10.94;89.17;97552.77;106796;1285;25472;-85
2023/04/11 08:05:12;;;;;;;11.20;9.50;;;;;;;10.97;87.77;97553.45;107752;1285;24267;-84
2023/04/11 08:08:38;;;;;;;12.40;9.50;;;;;;;10.99;87.94;97542.73;108019;1285;22528;-84
2023/04/11 08:11:27;;;;;;;20.80;16.40;;;;;;;11.03;87.88;97528.23;105994;1294;22507;-85
2023/04/11 08:13:55;;;;;;;14.70;12.10;;;;;;;11.13;86.77;97526.58;106009;1294;22564;-84
2023/04/11 08:16:23;;;;;;;11.80;9.70;;;;;;;11.22;86.16;97518.02;105956;1294;22671;-83
2023/04/11 08:18:51;;;;;;;13.50;10.10;;;;;;;11.30;86.30;97513.63;105880;1294;24278;-84
2023/04/11 08:21:22;;;;;;;13.40;9.80;;;;;;;11.34;84.67;97504.49;106030;1294;24308;-84
2023/04/11 08:23:50;;;;;;;10.90;9.80;;;;;;;11.36;84.70;97497.64;106108;1294;22583;-84
2023/04/11 08:26:18;;;;;;;16.40;11.00;;;;;;;11.41;83.91;97495.59;105919;1294;25247;-84
2023/04/11 08:28:47;;;;;;;11.90;10.50;;;;;;;11.47;84.75;97503.48;106113;1294;23915;-83
2023/04/11 08:31:14;;;;;;;10.50;9.20;;;;;;;11.55;83.51;97505.58;106149;1294;22600;-85
2023/04/11 08:33:42;;;;;;;12.80;9.60;;;;;;;11.67;84.35;97496.70;105839;1294;22583;-84
2023/04/11 08:36:11;;;;;;;11.00;9.80;;;;;;;11.81;83.63;97495.77;105855;1294;22532;-84
2023/04/11 08:38:39;;;;;;;12.20;9.20;;;;;;;11.88;83.29;97493.42;105782;1294;22543;-84
2023/04/11 08:41:07;;;;;;;10.60;8.70;;;;;;;11.95;82.20;97486.96;105785;1285;22592;-85
2023/04/11 08:43:38;;;;;;;10.80;9.30;;;;;;;11.97;82.47;97487.52;105964;1294;22991;-85
2023/04/11 08:46:07;;;;;;;12.30;9.70;;;;;;;12.04;83.80;97480.21;105965;1294;25347;-85
2023/04/11 08:48:35;;;;;;;9.90;8.60;;;;;;;12.12;81.85;97476.39;106191;1285;25460;-85
2023/04/11 08:51:04;;;;;;;10.30;8.70;;;;;;;12.12;80.81;97473.91;106551;1284;22529;-84
2023/04/11 08:53:36;;;;;;;10.40;8.80;;;;;;;12.15;81.73;97471.63;106463;1285;22554;-86
2023/04/11 08:56:05;;;;;;;11.50;9.50;;;;;;;12.26;82.79;97468.27;106599;1285;22622;-83
2023/04/11 08:58:33;;;;;;;14.50;10.40;;;;;;;12.49;82.14;97467.91;106741;1285;22648;-85
2023/04/11 09:01:24;;;;;;;15.80;14.30;;;;;;;12.78;81.86;97466.27;106920;1285;22547;-90
2023/04/11 09:04:32;;;;;;;12.00;10.80;;;;;;;13.01;80.47;97464.29;107852;1278;22551;-90
2023/04/11 09:08:02;;;;;;;10.80;9.70;;;;;;;12.97;80.05;97460.23;107715;1285;23001;-90
2023/04/11 09:10:46;;;;;;;14.00;10.10;;;;;;;13.00;79.67;97455.61;107332;1285;22536;-87
2023/04/11 09:13:27;;;;;;;13.10;9.40;;;;;;;13.08;77.62;97459.93;107359;1285;22696;-88
2023/04/11 09:16:08;;;;;;;9.60;8.60;;;;;;;13.20;78.78;97456.78;107498;1273;22589;-89
2023/04/11 09:18:45;;;;;;;11.20;9.20;;;;;;;13.36;78.90;97451.79;107854;1285;22472;-89
2023/04/11 09:21:15;;;;;;;14.10;9.60;;;;;;;13.49;77.53;97445.23;107593;1285;24218;-89
2023/04/11 09:23:44;;;;;;;13.50;9.50;;;;;;;13.64;76.60;97435.53;107057;1285;23918;-88
2023/04/11 09:26:23;;;;;;;11.50;9.80;;;;;;;13.76;75.77;97433.33;107801;1259;23480;-88
2023/04/11 09:28:52;;;;;;;13.10;10.60;;;;;;;13.89;75.44;97426.30;106711;1284;24241;-83
2023/04/11 09:31:39;;;;;;;12.60;8.90;;;;;;;14.02;74.75;97417.95;106756;1284;25336;-86
2023/04/11 09:34:08;;;;;;;9.70;7.30;;;;;;;14.18;74.07;97416.50;106775;1284;22575;-89
2023/04/11 09:36:38;;;;;;;9.00;6.90;;;;;;;14.26;73.50;97414.69;107049;1284;24357;-90
2023/04/11 09:39:19;;;;;;;7.80;6.60;;;;;;;14.34;73.72;97406.13;107035;1284;22558;-87
2023/04/11 09:41:47;;;;;;;9.90;8.60;;;;;;;14.46;72.95;97397.93;107031;1273;24185;-86
2023/04/11 09:44:15;;;;;;;12.60;8.20;;;;;;;14.57;72.95;97389.34;107132;1284;25287;-87
2023/04/11 09:46:57;;;;;;;9.10;7.70;;;;;;;14.65;71.99;97386.51;107100;1284;22539;-88
2023/04/11 09:49:26;;;;;;;9.00;7.00;;;;;;;14.77;72.34;97387.36;106837;1284;24071;-85
2023/04/11 09:51:54;;;;;;;10.30;7.20;;;;;;;14.87;71.79;97372.33;106656;1284;26061;-85
2023/04/11 09:54:30;;;;;;;9.90;6.80;;;;;;;14.96;72.81;97369.12;106694;1284;22645;-87
2023/04/11 09:56:59;;;;;;;9.60;7.80;;;;;;;15.04;69.26;97366.11;106814;1284;22590;-85
2023/04/11 09:59:28;;;;;;;8.30;7.20;;;;;;;14.96;67.20;97361.77;106821;1284;22652;-81
2023/04/11 10:01:57;;;;;;;9.50;6.10;;;;;;;14.92;70.09;97352.66;106726;1284;25233;-83
2023/04/11 10:04:26;;;;;;;12.40;9.00;;;;;;;15.00;70.81;97348.34;106867;1283;26535;-83
2023/04/11 10:07:15;;;;;;;10.20;7.60;;;;;;;15.03;68.73;97346.63;106732;1285;22822;-85
2023/04/11 10:09:44;;;;;;;8.40;6.50;;;;;;;15.00;68.70;97347.32;106785;1285;22542;-82
2023/04/11 10:12:29;;;;;;;12.20;5.60;;;;;;;15.07;68.32;97348.67;106691;1285;23528;-81
2023/04/11 10:15:04;;;;;;;;;;;;;;;15.16;67.05;97346.17;106742;1285;24365;-83
2023/04/11 10:17:32;;;;;;;8.30;5.50;;;;;;;15.20;67.40;97345.38;106745;1269;22754;-86
2023/04/11 10:20:00;;;;;;;8.80;6.30;;;;;;;15.14;66.05;97345.41;106741;1285;22788;-81
2023/04/11 10:22:58;;;;;;;6.70;5.50;;;;;;;15.04;66.19;97341.38;106826;1282;22545;-82
2023/04/11 10:25:27;;;;;;;8.80;7.90;;;;;;;15.13;67.53;97336.23;106317;1294;24276;-80
2023/04/11 10:28:00;;;;;;;9.10;6.00;;;;;;;15.40;67.58;97333.98;106286;1294;25304;-80
2023/04/11 10:30:40;;;;;;;8.70;5.40;;;;;;;15.74;67.14;97331.41;106328;1294;24356;-79
2023/04/11 10:33:10;;;;;;;12.10;11.00;;;;;;;16.05;66.15;97329.23;106241;1294;22540;-78
2023/04/11 10:36:11;;;;;;;8.00;6.10;;;;;;;16.30;66.31;97321.41;106138;1294;22635;-78
2023/04/11 10:38:48;;;;;;;9.20;5.80;;;;;;;16.43;64.35;97320.23;106275;1294;22546;-78
2023/04/11 10:41:23;;;;;;;6.50;5.50;;;;;;;16.45;64.51;97320.21;106367;1294;22551;-81
2023/04/11 10:44:12;;;;;;;7.10;5.60;;;;;;;16.63;64.50;97315.77;106627;1294;25452;-91
2023/04/11 10:46:45;;;;;;;9.50;5.60;;;;;;;16.78;63.85;97314.52;107367;1294;22565;-91
2023/04/11 10:51:50;;;;;;;8.80;6.20;;;;;;;16.88;61.45;97316.29;109777;1264;22552;-84
2023/04/11 10:54:25;;;;;;;7.70;5.90;;;;;;;16.69;59.95;97311.16;109088;1284;25348;-83
2023/04/11 10:56:54;;;;;;;7.20;6.20;;;;;;;16.58;60.13;97308.02;108546;1285;22826;-85
2023/04/11 10:59:31;;;;;;;7.60;5.80;;;;;;;16.63;62.56;97304.80;108644;1285;22687;-83
2023/04/11 11:02:00;;;;;;;7.90;6.10;;;;;;;16.78;61.01;97303.91;106957;1285;23904;-86
2023/04/11 11:04:36;;;;;;;7.70;6.20;;;;;;;16.80;61.27;97302.65;106906;1285;22501;-84
2023/04/11 11:07:06;;;;;;;9.40;6.60;;;;;;;16.90;58.93;97298.77;108286;1285;24339;-90
2023/04/11 11:09:35;;;;;;;9.30;6.00;;;;;;;16.94;57.87;97301.19;109633;1257;22500;-88
2023/04/11 11:12:19;;;;;;;8.20;6.70;;;;;;;16.88;59.29;97295.75;109168;1284;22670;-89
2023/04/11 11:14:47;;;;;;;12.00;7.10;;;;;;;16.97;57.98;97295.65;108730;1284;22568;-83
2023/04/11 11:17:16;;;;;;;7.80;5.50;;;;;;;17.02;57.13;97296.77;108193;1284;23921;-91
2023/04/11 11:19:45;;;;;;;10.50;5.50;;;;;;;17.00;58.23;97292.45;108705;1259;22530;-88
2023/04/11 11:22:24;;;;;;;9.80;6.00;;;;;;;17.14;56.78;97283.96;107348;1284;22664;-88
2023/04/11 11:24:52;;;;;;;8.40;6.10;;;;;;;17.17;52.74;97277.48;109620;1285;25377;-86
2023/04/11 11:27:22;;;;;;;8.10;5.80;;;;;;;17.09;54.24;97269.25;109564;1259;22545;-90
2023/04/11 11:29:51;;;;;;;7.00;5.70;;;;;;;17.37;55.93;97264.77;109951;1256;23295;-88
2023/04/11 11:32:27;;;;;;;11.90;6.10;;;;;;;17.80;55.32;97262.80;109765;1262;23694;-89
2023/04/11 11:34:56;;;;;;;11.60;6.70;;;;;;;18.13;56.61;97257.15;109361;1285;22549;-92
2023/04/11 11:37:24;;;;;;;8.50;6.40;;;;;;;18.28;55.56;97252.82;108277;1285;22530;-91